Grocka — YT2457 — position and weather

sailwx.info

Track history (hours):
 
Tides and Currents Weather Stations Pressure Air Temp Water Temp Dewpoint Dewpoint Depression Visibility Wind Speed Wind Dir Waves Ship Positions

Grocka

Last reported at 2017-Dec-15 16:45 UTC. Time now 2017-Dec-15 21:50 UTC.
Position N 45°12' E 020°19'.

Length 126 m; draft 2.2 m.

Type: Ship. MMSI: 279202457.

Date/timePositionNaut miles runAvg speedWind from/ knotsBaromVisibWave heightAir tempDewpointWater temp
2017-Dec-15 16:45N 45°12' E 020°19'1 3.9
2017-Dec-15 16:30N 45°11' E 020°18'1 1.5
2017-Dec-15 15:59N 45°10' E 020°17'1 1.6
2017-Dec-15 15:30N 45°11' E 020°18'2 4.8
2017-Dec-15 15:00N 45°13' E 020°19'6 4.3
2017-Dec-15 13:39N 45°18' E 020°14'1 3.8
2017-Dec-15 13:29N 45°19' E 020°15'1 1.0
2017-Dec-15 12:57N 45°19' E 020°15'4 5.1
2017-Dec-15 12:12N 45°22' E 020°12'414.6
2017-Dec-15 11:57N 45°26' E 020°13'1 1.3
2017-Dec-15 11:24N 45°27' E 020°13'1 3.5
2017-Dec-15 10:59N 45°28' E 020°11'3 6.3
2017-Dec-15 10:30N 45°30' E 020°08'3 6.3
2017-Dec-15 10:00N 45°33' E 020°06'2 3.6
2017-Dec-15 09:29N 45°34' E 020°07'1 1.5
2017-Dec-15 09:00N 45°35' E 020°08'0 0.1
2017-Dec-15 08:08N 45°35' E 020°07'0 1.2
2017-Dec-15 08:00N 45°35' E 020°08'2 2.9
2017-Dec-15 07:29N 45°36' E 020°06'2 2.3
2017-Dec-15 06:48N 45°37' E 020°05'3 5.4
2017-Dec-15 06:17N 45°40' E 020°07'3 7.3
2017-Dec-15 05:54N 45°43' E 020°06'1 0.1
2017-Dec-14 17:14N 45°43' E 020°07'3 4.3
2017-Dec-14 16:26N 45°46' E 020°09'2 0.1
2017-Dec-13 14:21N 45°44' E 020°10'5 1.7
2017-Dec-13 11:28N 45°39' E 020°07'2 2.5
2017-Dec-13 10:46N 45°38' E 020°06'1 2.6
2017-Dec-13 10:30N 45°37' E 020°05'25 1.4
2017-Dec-12 16:13N 45°14' E 020°18'0 2.2
2017-Dec-12 16:00N 45°14' E 020°19'1 2.2
2017-Dec-12 15:30N 45°13' E 020°19'1 2.1
2017-Dec-12 15:00N 45°12' E 020°19'1 2.1
2017-Dec-12 14:30N 45°11' E 020°18'1 2.1
2017-Dec-12 14:00N 45°10' E 020°17'1 2.3
2017-Dec-12 13:30N 45°09' E 020°17'1 1.5
2017-Dec-12 13:00N 45°08' E 020°17'0 0.0
2017-Dec-12 12:30N 45°08' E 020°17'0 0.0
2017-Dec-12 12:00N 45°08' E 020°17'0 0.0
2017-Dec-12 11:30N 45°08' E 020°17'0 0.0
2017-Dec-12 11:00N 45°08' E 020°17'0 0.0
2017-Dec-12 10:30N 45°08' E 020°17'0 0.0
2017-Dec-12 10:00N 45°08' E 020°17'0 0.0
2017-Dec-12 09:29N 45°08' E 020°17'0 0.4
2017-Dec-12 09:00N 45°08' E 020°17'1 2.3
2017-Dec-12 08:30N 45°07' E 020°17'1 2.3
2017-Dec-12 08:00N 45°06' E 020°18'1 2.2
2017-Dec-12 07:30N 45°05' E 020°19'1 2.3
2017-Dec-12 07:00N 45°04' E 020°20'1 2.2
2017-Dec-12 06:30N 45°03' E 020°21'1 2.1
2017-Dec-12 06:00N 45°02' E 020°22'1 2.3
2017-Dec-12 05:30N 45°01' E 020°22'1 2.1
2017-Dec-12 05:00N 45°00' E 020°21'1 2.0
2017-Dec-12 04:30N 44°60' E 020°20'1 1.6
2017-Dec-12 04:00N 44°60' E 020°19'0 0.0
2017-Dec-12 03:30N 44°60' E 020°19'0 0.0
2017-Dec-12 03:00N 44°60' E 020°19'0 0.0
2017-Dec-12 02:30N 44°60' E 020°19'0 0.0
2017-Dec-12 02:00N 44°60' E 020°19'0 0.0
2017-Dec-12 01:30N 44°60' E 020°19'0 0.0
2017-Dec-12 01:00N 44°60' E 020°19'0 0.0
2017-Dec-12 00:30N 44°60' E 020°19'0 0.0
2017-Dec-12 00:00N 44°60' E 020°19'0 0.0
2017-Dec-11 23:30N 44°60' E 020°19'0 0.0
2017-Dec-11 23:00N 44°60' E 020°19'0 0.0
2017-Dec-11 22:30N 44°60' E 020°19'0 0.0
2017-Dec-11 22:00N 44°60' E 020°19'0 0.0
2017-Dec-11 21:30N 44°60' E 020°19'0 0.0
2017-Dec-11 21:00N 44°60' E 020°19'0 0.0
2017-Dec-11 20:30N 44°60' E 020°19'1 2.1
2017-Dec-11 20:00N 44°59' E 020°18'1 2.4
2017-Dec-11 19:30N 44°58' E 020°17'1 2.5
2017-Dec-11 19:00N 44°57' E 020°18'1 2.6
2017-Dec-11 18:30N 44°56' E 020°19'1 2.6
2017-Dec-11 18:00N 44°55' E 020°20'1 2.5
2017-Dec-11 17:30N 44°53' E 020°21'1 2.4
2017-Dec-11 17:00N 44°52' E 020°22'1 2.4
2017-Dec-11 16:30N 44°52' E 020°23'1 2.5
2017-Dec-11 16:00N 44°51' E 020°25'1 2.7
2017-Dec-11 15:30N 44°50' E 020°27'1 2.4
2017-Dec-11 15:00N 44°50' E 020°28'1 2.2
2017-Dec-11 14:30N 44°50' E 020°30'1 2.4
2017-Dec-11 14:00N 44°50' E 020°31'1 2.3
2017-Dec-11 13:22N 44°51' E 020°33'1 2.3
2017-Dec-11 13:00N 44°51' E 020°34'15 2.0
2017-Dec-11 05:26N 44°40' E 020°48'1 2.5
2017-Dec-11 04:59N 44°40' E 020°50'2 2.9
2017-Dec-11 04:28N 44°40' E 020°52'1 0.3
2017-Dec-11 01:15N 44°40' E 020°53'0 0.2
2017-Dec-10 22:52N 44°40' E 020°54'3 2.5
2017-Dec-10 21:47N 44°41' E 020°57'1 2.5
2017-Dec-10 21:30N 44°42' E 020°57'1 2.4
2017-Dec-10 21:00N 44°43' E 020°59'1 2.7
2017-Dec-10 20:31N 44°43' E 021°01'1 1.9
2017-Dec-10 19:59N 44°43' E 021°02'1 1.9
2017-Dec-10 19:30N 44°43' E 021°03'0 0.0
2017-Dec-10 19:00N 44°43' E 021°03'0 0.0
2017-Dec-10 18:31N 44°43' E 021°03'0 0.0
2017-Dec-10 18:01N 44°43' E 021°03'0 0.0
2017-Dec-10 17:31N 44°43' E 021°03'0 0.0
2017-Dec-10 17:01N 44°43' E 021°03'0 0.0
2017-Dec-10 16:01N 44°43' E 021°03'0 0.0
2017-Dec-10 15:31N 44°43' E 021°03'0 0.1
2017-Dec-10 15:00N 44°43' E 021°03'0 0.1
2017-Dec-10 13:19N 44°43' E 021°04'0 1.1
2017-Dec-10 13:00N 44°43' E 021°03'1 2.5
2017-Dec-10 12:25N 44°42' E 021°02'2 0.0
2017-Dec-08 14:43N 44°40' E 021°03'1 3.9
2017-Dec-08 14:28N 44°41' E 021°03'2 3.7
2017-Dec-08 13:59N 44°43' E 021°02'0 0.5
2017-Dec-08 13:30N 44°43' E 021°02'3 6.2
2017-Dec-08 13:01N 44°42' E 020°58'2 4.6
2017-Dec-08 12:30N 44°40' E 020°56'1 1.3
2017-Dec-08 12:00N 44°40' E 020°55'1 2.5
2017-Dec-08 11:30N 44°41' E 020°56'0 0.0
2017-Dec-08 11:00N 44°41' E 020°56'0 0.0
2017-Dec-08 10:30N 44°41' E 020°56'0 0.0
2017-Dec-08 10:00N 44°41' E 020°56'1 1.7
2017-Dec-08 09:30N 44°40' E 020°55'3 6.5
2017-Dec-08 09:00N 44°40' E 020°51'3 6.8
2017-Dec-08 08:30N 44°40' E 020°46'3 6.4
2017-Dec-08 07:58N 44°42' E 020°43'3 5.8
2017-Dec-08 07:30N 44°44' E 020°40'3 6.3
2017-Dec-08 06:59N 44°47' E 020°38'3 6.5
2017-Dec-08 06:30N 44°50' E 020°39'3 5.8
2017-Dec-08 06:00N 44°51' E 020°35'3 6.4
2017-Dec-08 05:30N 44°50' E 020°31'3 6.5
2017-Dec-08 05:00N 44°50' E 020°27'3 6.4
2017-Dec-08 04:30N 44°52' E 020°23'1 2.2
2017-Dec-08 04:00N 44°53' E 020°22'0 0.0
2017-Dec-08 03:30N 44°53' E 020°22'0 0.0
2017-Dec-08 03:00N 44°53' E 020°22'0 0.0
2017-Dec-08 02:30N 44°53' E 020°22'0 0.0
2017-Dec-08 02:00N 44°53' E 020°22'0 0.0
2017-Dec-08 01:30N 44°53' E 020°22'0 0.0
2017-Dec-08 01:00N 44°53' E 020°22'0 0.0
2017-Dec-08 00:30N 44°53' E 020°22'0 0.0
2017-Dec-08 00:00N 44°53' E 020°22'0 0.0
2017-Dec-07 23:30N 44°53' E 020°22'0 0.0
2017-Dec-07 23:00N 44°53' E 020°22'0 0.0
2017-Dec-07 22:30N 44°53' E 020°22'0 0.0
2017-Dec-07 22:00N 44°53' E 020°22'0 0.0
2017-Dec-07 21:30N 44°53' E 020°22'0 0.0
2017-Dec-07 21:00N 44°53' E 020°22'0 0.0
2017-Dec-07 20:30N 44°53' E 020°22'0 0.0
2017-Dec-07 20:00N 44°53' E 020°22'0 0.0
2017-Dec-07 19:30N 44°53' E 020°22'1 2.1
2017-Dec-07 19:00N 44°54' E 020°21'3 6.3
2017-Dec-07 18:30N 44°56' E 020°18'3 6.1
2017-Dec-07 18:00N 44°59' E 020°18'3 6.3
2017-Dec-07 17:30N 45°01' E 020°22'3 6.1
2017-Dec-07 17:00N 45°04' E 020°21'3 6.5
2017-Dec-07 16:30N 45°06' E 020°18'3 6.0
2017-Dec-07 16:00N 45°09' E 020°17'2 4.6
2017-Dec-07 15:30N 45°11' E 020°18'3 5.8
2017-Dec-07 15:00N 45°14' E 020°18'7 4.7
2017-Dec-07 13:35N 45°20' E 020°16'3 5.8
2017-Dec-07 13:06N 45°22' E 020°13'  
Track history (hours):
 
Tides and Currents Weather Stations Pressure Air Temp Water Temp Dewpoint Dewpoint Depression Visibility Wind Speed Wind Dir Waves Ship Positions

Grocka

Last reported at 2017-Dec-15 16:45 UTC. Time now 2017-Dec-15 21:50 UTC.
Position N 45°12' E 020°19'.

Length 126 m; draft 2.2 m.

Type: Ship. MMSI: 279202457.

Date/timePositionNaut miles runAvg speedWind from/ knotsBaromVisibWave heightAir tempDewpointWater temp
2017-Dec-15 16:45N 45°12' E 020°19'1 3.9
2017-Dec-15 16:30N 45°11' E 020°18'1 1.5
2017-Dec-15 15:59N 45°10' E 020°17'1 1.6
2017-Dec-15 15:30N 45°11' E 020°18'2 4.8
2017-Dec-15 15:00N 45°13' E 020°19'6 4.3
2017-Dec-15 13:39N 45°18' E 020°14'1 3.8
2017-Dec-15 13:29N 45°19' E 020°15'1 1.0
2017-Dec-15 12:57N 45°19' E 020°15'4 5.1
2017-Dec-15 12:12N 45°22' E 020°12'414.6
2017-Dec-15 11:57N 45°26' E 020°13'1 1.3
2017-Dec-15 11:24N 45°27' E 020°13'1 3.5
2017-Dec-15 10:59N 45°28' E 020°11'3 6.3
2017-Dec-15 10:30N 45°30' E 020°08'3 6.3
2017-Dec-15 10:00N 45°33' E 020°06'2 3.6
2017-Dec-15 09:29N 45°34' E 020°07'1 1.5
2017-Dec-15 09:00N 45°35' E 020°08'0 0.1
2017-Dec-15 08:08N 45°35' E 020°07'0 1.2
2017-Dec-15 08:00N 45°35' E 020°08'2 2.9
2017-Dec-15 07:29N 45°36' E 020°06'2 2.3
2017-Dec-15 06:48N 45°37' E 020°05'3 5.4
2017-Dec-15 06:17N 45°40' E 020°07'3 7.3
2017-Dec-15 05:54N 45°43' E 020°06'1 0.1
2017-Dec-14 17:14N 45°43' E 020°07'3 4.3
2017-Dec-14 16:26N 45°46' E 020°09'2 0.1
2017-Dec-13 14:21N 45°44' E 020°10'5 1.7
2017-Dec-13 11:28N 45°39' E 020°07'2 2.5
2017-Dec-13 10:46N 45°38' E 020°06'1 2.6
2017-Dec-13 10:30N 45°37' E 020°05'25 1.4
2017-Dec-12 16:13N 45°14' E 020°18'0 2.2
2017-Dec-12 16:00N 45°14' E 020°19'1 2.2
2017-Dec-12 15:30N 45°13' E 020°19'1 2.1
2017-Dec-12 15:00N 45°12' E 020°19'1 2.1
2017-Dec-12 14:30N 45°11' E 020°18'1 2.1
2017-Dec-12 14:00N 45°10' E 020°17'1 2.3
2017-Dec-12 13:30N 45°09' E 020°17'1 1.5
2017-Dec-12 13:00N 45°08' E 020°17'0 0.0
2017-Dec-12 12:30N 45°08' E 020°17'0 0.0
2017-Dec-12 12:00N 45°08' E 020°17'0 0.0
2017-Dec-12 11:30N 45°08' E 020°17'0 0.0
2017-Dec-12 11:00N 45°08' E 020°17'0 0.0
2017-Dec-12 10:30N 45°08' E 020°17'0 0.0
2017-Dec-12 10:00N 45°08' E 020°17'0 0.0
2017-Dec-12 09:29N 45°08' E 020°17'0 0.4
2017-Dec-12 09:00N 45°08' E 020°17'1 2.3
2017-Dec-12 08:30N 45°07' E 020°17'1 2.3
2017-Dec-12 08:00N 45°06' E 020°18'1 2.2
2017-Dec-12 07:30N 45°05' E 020°19'1 2.3
2017-Dec-12 07:00N 45°04' E 020°20'1 2.2
2017-Dec-12 06:30N 45°03' E 020°21'1 2.1
2017-Dec-12 06:00N 45°02' E 020°22'1 2.3
2017-Dec-12 05:30N 45°01' E 020°22'1 2.1
2017-Dec-12 05:00N 45°00' E 020°21'1 2.0
2017-Dec-12 04:30N 44°60' E 020°20'1 1.6
2017-Dec-12 04:00N 44°60' E 020°19'0 0.0
2017-Dec-12 03:30N 44°60' E 020°19'0 0.0
2017-Dec-12 03:00N 44°60' E 020°19'0 0.0
2017-Dec-12 02:30N 44°60' E 020°19'0 0.0
2017-Dec-12 02:00N 44°60' E 020°19'0 0.0
2017-Dec-12 01:30N 44°60' E 020°19'0 0.0
2017-Dec-12 01:00N 44°60' E 020°19'0 0.0
2017-Dec-12 00:30N 44°60' E 020°19'0 0.0
2017-Dec-12 00:00N 44°60' E 020°19'0 0.0
2017-Dec-11 23:30N 44°60' E 020°19'0 0.0
2017-Dec-11 23:00N 44°60' E 020°19'0 0.0
2017-Dec-11 22:30N 44°60' E 020°19'0 0.0
2017-Dec-11 22:00N 44°60' E 020°19'0 0.0
2017-Dec-11 21:30N 44°60' E 020°19'0 0.0
2017-Dec-11 21:00N 44°60' E 020°19'0 0.0
2017-Dec-11 20:30N 44°60' E 020°19'1 2.1
2017-Dec-11 20:00N 44°59' E 020°18'1 2.4
2017-Dec-11 19:30N 44°58' E 020°17'1 2.5
2017-Dec-11 19:00N 44°57' E 020°18'1 2.6
2017-Dec-11 18:30N 44°56' E 020°19'1 2.6
2017-Dec-11 18:00N 44°55' E 020°20'1 2.5
2017-Dec-11 17:30N 44°53' E 020°21'1 2.4
2017-Dec-11 17:00N 44°52' E 020°22'1 2.4
2017-Dec-11 16:30N 44°52' E 020°23'1 2.5
2017-Dec-11 16:00N 44°51' E 020°25'1 2.7
2017-Dec-11 15:30N 44°50' E 020°27'1 2.4
2017-Dec-11 15:00N 44°50' E 020°28'1 2.2
2017-Dec-11 14:30N 44°50' E 020°30'1 2.4
2017-Dec-11 14:00N 44°50' E 020°31'1 2.3
2017-Dec-11 13:22N 44°51' E 020°33'1 2.3
2017-Dec-11 13:00N 44°51' E 020°34'15 2.0
2017-Dec-11 05:26N 44°40' E 020°48'1 2.5
2017-Dec-11 04:59N 44°40' E 020°50'2 2.9
2017-Dec-11 04:28N 44°40' E 020°52'1 0.3
2017-Dec-11 01:15N 44°40' E 020°53'0 0.2
2017-Dec-10 22:52N 44°40' E 020°54'3 2.5
2017-Dec-10 21:47N 44°41' E 020°57'1 2.5
2017-Dec-10 21:30N 44°42' E 020°57'1 2.4
2017-Dec-10 21:00N 44°43' E 020°59'1 2.7
2017-Dec-10 20:31N 44°43' E 021°01'1 1.9
2017-Dec-10 19:59N 44°43' E 021°02'1 1.9
2017-Dec-10 19:30N 44°43' E 021°03'0 0.0
2017-Dec-10 19:00N 44°43' E 021°03'0 0.0
2017-Dec-10 18:31N 44°43' E 021°03'0 0.0
2017-Dec-10 18:01N 44°43' E 021°03'0 0.0
2017-Dec-10 17:31N 44°43' E 021°03'0 0.0
2017-Dec-10 17:01N 44°43' E 021°03'0 0.0
2017-Dec-10 16:01N 44°43' E 021°03'0 0.0
2017-Dec-10 15:31N 44°43' E 021°03'0 0.1
2017-Dec-10 15:00N 44°43' E 021°03'0 0.1
2017-Dec-10 13:19N 44°43' E 021°04'0 1.1
2017-Dec-10 13:00N 44°43' E 021°03'1 2.5
2017-Dec-10 12:25N 44°42' E 021°02'2 0.0
2017-Dec-08 14:43N 44°40' E 021°03'1 3.9
2017-Dec-08 14:28N 44°41' E 021°03'2 3.7
2017-Dec-08 13:59N 44°43' E 021°02'0 0.5
2017-Dec-08 13:30N 44°43' E 021°02'3 6.2
2017-Dec-08 13:01N 44°42' E 020°58'2 4.6
2017-Dec-08 12:30N 44°40' E 020°56'1 1.3
2017-Dec-08 12:00N 44°40' E 020°55'1 2.5
2017-Dec-08 11:30N 44°41' E 020°56'0 0.0
2017-Dec-08 11:00N 44°41' E 020°56'0 0.0
2017-Dec-08 10:30N 44°41' E 020°56'0 0.0
2017-Dec-08 10:00N 44°41' E 020°56'1 1.7
2017-Dec-08 09:30N 44°40' E 020°55'3 6.5
2017-Dec-08 09:00N 44°40' E 020°51'3 6.8
2017-Dec-08 08:30N 44°40' E 020°46'3 6.4
2017-Dec-08 07:58N 44°42' E 020°43'3 5.8
2017-Dec-08 07:30N 44°44' E 020°40'3 6.3
2017-Dec-08 06:59N 44°47' E 020°38'3 6.5
2017-Dec-08 06:30N 44°50' E 020°39'3 5.8
2017-Dec-08 06:00N 44°51' E 020°35'3 6.4
2017-Dec-08 05:30N 44°50' E 020°31'3 6.5
2017-Dec-08 05:00N 44°50' E 020°27'3 6.4
2017-Dec-08 04:30N 44°52' E 020°23'1 2.2
2017-Dec-08 04:00N 44°53' E 020°22'0 0.0
2017-Dec-08 03:30N 44°53' E 020°22'0 0.0
2017-Dec-08 03:00N 44°53' E 020°22'0 0.0
2017-Dec-08 02:30N 44°53' E 020°22'0 0.0
2017-Dec-08 02:00N 44°53' E 020°22'0 0.0
2017-Dec-08 01:30N 44°53' E 020°22'0 0.0
2017-Dec-08 01:00N 44°53' E 020°22'0 0.0
2017-Dec-08 00:30N 44°53' E 020°22'0 0.0
2017-Dec-08 00:00N 44°53' E 020°22'0 0.0
2017-Dec-07 23:30N 44°53' E 020°22'0 0.0
2017-Dec-07 23:00N 44°53' E 020°22'0 0.0
2017-Dec-07 22:30N 44°53' E 020°22'0 0.0
2017-Dec-07 22:00N 44°53' E 020°22'0 0.0
2017-Dec-07 21:30N 44°53' E 020°22'0 0.0
2017-Dec-07 21:00N 44°53' E 020°22'0 0.0
2017-Dec-07 20:30N 44°53' E 020°22'0 0.0
2017-Dec-07 20:00N 44°53' E 020°22'0 0.0
2017-Dec-07 19:30N 44°53' E 020°22'1 2.1
2017-Dec-07 19:00N 44°54' E 020°21'3 6.3
2017-Dec-07 18:30N 44°56' E 020°18'3 6.1
2017-Dec-07 18:00N 44°59' E 020°18'3 6.3
2017-Dec-07 17:30N 45°01' E 020°22'3 6.1
2017-Dec-07 17:00N 45°04' E 020°21'3 6.5
2017-Dec-07 16:30N 45°06' E 020°18'3 6.0
2017-Dec-07 16:00N 45°09' E 020°17'2 4.6
2017-Dec-07 15:30N 45°11' E 020°18'3 5.8
2017-Dec-07 15:00N 45°14' E 020°18'7 4.7
2017-Dec-07 13:35N 45°20' E 020°16'3 5.8
2017-Dec-07 13:06N 45°22' E 020°13'  

Dump ship's entire track history